Nearby METAR Reports

 

PAEN - Kenai, Alaska, USA
Distance from station: ESE 2mi, 4km
Updated: Sun, 24-Oct-2021 5:53pm AKDT
Clear
Clear
 Wind from NNW
Wind: NNW 3 mph , 6 km/h
Temperature: 45°F , 7°C
Dew Point: 37°F , 3°C
Humidity: 76%
Barometer: 29.33 inHg , 993.2 hPa
Clouds: Clear
Visibility: 10 miles , 16 km
2021/10/25 01:53 PAEN 250153Z 33003KT 10SM CLR 07/03 A2933 RMK AO2 SLP933 T00720028
PASX - Soldotna, Alaska, USA
Distance from station: SE 12mi, 19km
Updated: Sun, 24-Oct-2021 5:56pm AKDT
Clear
Clear
 Wind from W
Wind: W 6 mph , 9 km/h
Temperature: 43°F , 6°C
Wind Chill: 39°F , 4°C
Dew Point: 37°F , 3°C
Humidity: 81%
Barometer: 29.34 inHg , 993.6 hPa
Clouds: Clear
Visibility: 10 miles , 16 km
2021/10/25 01:56 PASX 250156Z AUTO 27005KT 10SM CLR 06/03 A2934 RMK AO2 SLP945 T00610028
 
PANC - Anchorage Intl, Alaska, USA
Distance from station: NE 59mi, 96km
Updated: Sun, 24-Oct-2021 5:53pm AKDT
Partly cloudy
Partly cloudy
 Wind from NE
Wind: NE 3 mph , 6 km/h
Temperature: 45°F , 7°C
Dew Point: 34°F , 1°C
Humidity: 66%
Barometer: 29.32 inHg , 992.9 hPa
Clouds: Partly cloudy
Visibility: 10 miles , 16 km
Cloud details: Few Clouds 3000 ft
Partly cloudy 12000 ft
2021/10/25 01:53 PANC 250153Z 05003KT 10SM FEW030 SCT120 07/01 A2932 RMK AO2 SLP930 T00720006
PALH - Anchorage/Lake H, Alaska, USA
Distance from station: NE 61mi, 99km
Updated: Sun, 24-Oct-2021 5:53pm AKDT
Clear
Clear
 Wind from calm
Wind: Calm
Temperature: 45°F , 7°C
Dew Point: 36°F , 2°C
Humidity: 71%
Barometer: 29.33 inHg , 993.2 hPa
Clouds: Clear
Visibility: 10 miles , 16 km
2021/10/25 01:53 PALH 250153Z 00000KT 10SM CLR 07/02 A2933 RMK AO2 SLP933 T00670017
 
PAHO - Homer, Alaska, USA
Distance from station: S 66mi, 106km
Updated: Sun, 24-Oct-2021 5:53pm AKDT
Mostly cloudy
Mostly cloudy
 Wind from WSW
Wind: WSW 8 mph , 13 km/h
Temperature: 45°F , 7°C
Wind Chill: 41°F , 5°C
Dew Point: 39°F , 4°C
Humidity: 81%
Barometer: 29.33 inHg , 993.2 hPa
Clouds: Mostly cloudy
Visibility: 10 miles , 16 km
Cloud details: Partly cloudy 1400 ft
Mostly cloudy 4500 ft
Mostly cloudy 5500 ft
2021/10/25 01:53 PAHO 250153Z 25007KT 10SM SCT014 BKN045 BKN055 07/04 A2933 RMK AO2 SLP934 T00720044 $
PAMR - Anchorage/Merril, Alaska, USA
Distance from station: NE 66mi, 106km
Updated: Sun, 24-Oct-2021 5:53pm AKDT
Clear
Clear
 Wind from N
Wind: N 3 mph , 6 km/h
Temperature: 46°F , 8°C
Dew Point: 34°F , 1°C
Humidity: 62%
Barometer: 29.32 inHg , 992.9 hPa
Clouds: Clear
Visibility: 10 miles , 16 km
2021/10/25 01:53 PAMR 250153Z 01003KT 10SM CLR 08/01 A2932 RMK AO2 SLP930 T00780006
 
PAED - Elmendorf Afb, Alaska, USA
Distance from station: NE 69mi, 110km
Updated: Sun, 24-Oct-2021 5:56pm AKDT
Few Clouds
Few Clouds
 Wind from NNE
Wind: NNE 5 mph , 7 km/h
Temperature: 45°F , 7°C
Wind Chill: 42°F , 6°C
Dew Point: 34°F , 1°C
Humidity: 66%
Barometer: 29.32 inHg , 992.9 hPa
Clouds: Few Clouds
Visibility: 10 miles , 16 km
Cloud details: Few Clouds 12000 ft
2021/10/25 01:56 PAED 250156Z 02004KT 10SM FEW120 07/01 A2932 RMK AO2A SLP925 T00670014 $
PAWD - Seward, Alaska, USA
Distance from station: ESE 71mi, 115km
Updated: Sun, 24-Oct-2021 5:53pm AKDT
Overcast
Overcast
 Wind from NNE
Wind: NNE 5 mph , 7 km/h
Temperature: 45°F , 7°C
Wind Chill: 42°F , 6°C
Dew Point: 37°F , 3°C
Humidity: 76%
Barometer: 29.31 inHg , 992.5 hPa
Clouds: Overcast
Visibility: 10 miles , 16 km
Cloud details: Few Clouds 3500 ft
Overcast 11000 ft
2021/10/25 01:53 PAWD 250153Z AUTO 02004KT 10SM FEW035 OVC110 07/03 A2931 RMK AO2 SLP927 T00670033 TSNO
 
PASC - Deadhorse, Alaska, USA
Distance from station: ENE 670mi, 1078km
Updated: Sun, 24-Oct-2021 5:53pm AKDT
Overcast
Overcast
 Wind from WSW
Wind: WSW 6 mph , 9 km/h
Temperature: 27°F , -3°C
Wind Chill: 20°F , -7°C
Dew Point: 25°F , -4°C
Humidity: 93%
Barometer: 29.47 inHg , 998 hPa
Clouds: Overcast
Visibility: 10 miles , 16 km
Cloud details: Mostly cloudy 400 ft
Overcast 1800 ft
2021/10/25 01:53 PASC 250153Z 24005KT 10SM BKN004 OVC018 M03/M04 A2947 RMK AO2 SLP981 T10331039 PNO $
PAAD - Point Thomson, Alaska, USA
Distance from station: ENE 680mi, 1094km
Updated: Sun, 24-Oct-2021 5:35pm AKDT
Overcast
Overcast
 Wind from E
Wind: E 3 mph , 6 km/h
Temperature: 25°F , -4°C
Dew Point: 23°F , -5°C
Humidity: 93%
Barometer: 29.49 inHg , 998.6 hPa
Clouds: Overcast
Visibility: 10 miles , 16 km
Cloud details: Overcast 1700 ft
2021/10/25 01:35 PAAD 250135Z AUTO 10003KT 10SM OVC017 M04/M05 A2949 RMK AO2 T10431053


kenaipeople.com website

Dans Automotive

Lower Peninsula Power Sports

Freddies RoadHouse

Alaska Weather Net